createdAt,value
2023-05-04T00:00:37.435Z,988.99
2023-05-04T00:01:37.441Z,988.93
2023-05-04T00:02:37.554Z,988.90
2023-05-04T00:03:37.595Z,988.89
2023-05-04T00:04:37.405Z,988.88
2023-05-04T00:05:37.403Z,988.85
2023-05-04T00:06:37.396Z,988.82
2023-05-04T00:07:37.370Z,988.84
2023-05-04T00:08:37.397Z,988.83
2023-05-04T00:09:37.373Z,988.82
2023-05-04T00:10:37.358Z,988.80
2023-05-04T00:11:37.327Z,988.81
2023-05-04T00:12:37.371Z,988.76
2023-05-04T00:13:37.333Z,988.77
2023-05-04T00:14:37.441Z,988.74
2023-05-04T00:15:37.356Z,988.76
2023-05-04T00:16:37.362Z,988.74
2023-05-04T00:17:37.264Z,988.74
2023-05-04T00:18:37.321Z,988.74
2023-05-04T00:19:37.290Z,988.74
2023-05-04T00:20:37.289Z,988.78
2023-05-04T00:21:37.244Z,988.77
2023-05-04T00:22:37.308Z,988.84
2023-05-04T00:23:37.189Z,988.77
2023-05-04T00:24:37.216Z,988.85
2023-05-04T00:25:37.146Z,988.80
2023-05-04T00:26:37.184Z,988.80
2023-05-04T00:27:37.169Z,988.79
2023-05-04T00:28:37.167Z,988.82
2023-05-04T00:29:37.109Z,988.75
2023-05-04T00:30:37.148Z,988.76
2023-05-04T00:31:37.139Z,988.78
2023-05-04T00:32:37.147Z,988.76
2023-05-04T00:33:37.082Z,988.73
2023-05-04T00:34:37.333Z,988.73
2023-05-04T00:35:37.079Z,988.69
2023-05-04T00:36:37.088Z,988.68
2023-05-04T00:37:37.037Z,988.69
2023-05-04T00:38:37.054Z,988.70
2023-05-04T00:39:37.013Z,988.68
2023-05-04T00:40:37.087Z,988.66
2023-05-04T00:41:36.981Z,988.68
2023-05-04T00:42:37.030Z,988.69
2023-05-04T00:43:36.991Z,988.71
2023-05-04T00:44:36.978Z,988.67
2023-05-04T00:45:37.530Z,988.61
2023-05-04T00:46:37.087Z,988.63
2023-05-04T00:47:36.990Z,988.62
2023-05-04T00:48:36.924Z,988.64
2023-05-04T00:49:36.939Z,988.62
2023-05-04T00:50:36.956Z,988.61
2023-05-04T00:51:36.897Z,988.61
2023-05-04T00:52:36.906Z,988.61
2023-05-04T00:53:36.853Z,988.63
2023-05-04T00:54:36.894Z,988.60
2023-05-04T00:55:36.878Z,988.60
2023-05-04T00:56:36.912Z,988.63
2023-05-04T00:57:36.814Z,988.56
2023-05-04T00:58:36.824Z,988.59
2023-05-04T00:59:36.847Z,988.56
2023-05-04T01:00:36.830Z,988.53
2023-05-04T01:01:36.854Z,988.58
2023-05-04T01:02:36.892Z,988.54
2023-05-04T01:03:36.799Z,988.58
2023-05-04T01:04:36.774Z,988.60
2023-05-04T01:05:36.730Z,988.58
2023-05-04T01:06:36.743Z,988.58
2023-05-04T01:07:36.709Z,988.59
2023-05-04T01:08:36.709Z,988.55
2023-05-04T01:09:36.727Z,988.58
2023-05-04T01:10:36.697Z,988.56
2023-05-04T01:11:36.651Z,988.56
2023-05-04T01:12:36.698Z,988.57
2023-05-04T01:13:36.689Z,988.51
2023-05-04T01:14:36.691Z,988.51
2023-05-04T01:15:36.619Z,988.51
2023-05-04T01:16:36.680Z,988.50
2023-05-04T01:17:36.618Z,988.50
2023-05-04T01:18:36.605Z,988.50
2023-05-04T01:19:36.587Z,988.51
2023-05-04T01:20:36.583Z,988.50
2023-05-04T01:21:36.558Z,988.46
2023-05-04T01:22:36.577Z,988.51
2023-05-04T01:23:36.571Z,988.49
2023-05-04T01:24:36.791Z,988.49
2023-05-04T01:25:36.515Z,988.47
2023-05-04T01:26:36.531Z,988.50
2023-05-04T01:27:36.518Z,988.52
2023-05-04T01:28:36.500Z,988.50
2023-05-04T01:29:36.513Z,988.51
2023-05-04T01:30:36.479Z,988.46
2023-05-04T01:31:36.487Z,988.48
2023-05-04T01:32:36.499Z,988.47
2023-05-04T01:33:36.468Z,988.50
2023-05-04T01:34:36.569Z,988.51
2023-05-04T01:35:36.969Z,988.51
2023-05-04T01:36:36.475Z,988.51
2023-05-04T01:37:36.386Z,988.56
2023-05-04T01:38:36.392Z,988.54
2023-05-04T01:39:36.470Z,988.56
2023-05-04T01:40:36.417Z,988.54
2023-05-04T01:41:36.345Z,988.55
2023-05-04T01:42:36.347Z,988.54
2023-05-04T01:43:36.307Z,988.54
2023-05-04T01:44:36.310Z,988.55
2023-05-04T01:45:36.358Z,988.50
2023-05-04T01:46:36.317Z,988.51
2023-05-04T01:47:36.298Z,988.54
2023-05-04T01:48:36.284Z,988.49
2023-05-04T01:49:36.241Z,988.51
2023-05-04T01:50:36.276Z,988.50
2023-05-04T01:51:36.218Z,988.52
2023-05-04T01:52:36.256Z,988.52
2023-05-04T01:53:36.228Z,988.50
2023-05-04T01:54:36.214Z,988.50
2023-05-04T01:55:36.161Z,988.45
2023-05-04T01:56:36.499Z,988.47
2023-05-04T01:57:36.283Z,988.47
2023-05-04T01:58:36.171Z,988.48
2023-05-04T01:59:36.132Z,988.49
2023-05-04T02:00:36.120Z,988.48
2023-05-04T02:01:36.136Z,988.48
2023-05-04T02:02:36.247Z,988.52
2023-05-04T02:03:36.197Z,988.48
2023-05-04T02:04:36.067Z,988.48
2023-05-04T02:05:36.045Z,988.45
2023-05-04T02:06:36.061Z,988.46
2023-05-04T02:07:36.067Z,988.35
2023-05-04T02:08:36.030Z,988.44
2023-05-04T02:09:36.004Z,988.41
2023-05-04T02:10:36.011Z,988.47
2023-05-04T02:11:35.988Z,988.43
2023-05-04T02:12:36.010Z,988.44
2023-05-04T02:13:35.946Z,988.42
2023-05-04T02:14:35.970Z,988.42
2023-05-04T02:15:35.941Z,988.42
2023-05-04T02:16:36.002Z,988.45
2023-05-04T02:17:36.393Z,988.45
2023-05-04T02:18:35.917Z,988.46
2023-05-04T02:19:35.893Z,988.43
2023-05-04T02:20:35.927Z,988.44
2023-05-04T02:21:35.874Z,988.40
2023-05-04T02:22:35.888Z,988.45
2023-05-04T02:23:35.888Z,988.44
2023-05-04T02:24:35.865Z,988.48
2023-05-04T02:25:35.821Z,988.45
2023-05-04T02:26:35.843Z,988.42
2023-05-04T02:27:35.821Z,988.42
2023-05-04T02:28:35.841Z,988.42
2023-05-04T02:29:35.767Z,988.41
2023-05-04T02:30:35.792Z,988.45
2023-05-04T02:31:35.865Z,988.40
2023-05-04T02:32:35.770Z,988.38
2023-05-04T02:33:35.751Z,988.33
2023-05-04T02:34:35.782Z,988.35
2023-05-04T02:35:35.708Z,988.32
2023-05-04T02:36:36.532Z,988.33
2023-05-04T02:37:35.802Z,988.30
2023-05-04T02:38:35.716Z,988.28
2023-05-04T02:39:35.707Z,988.35
2023-05-04T02:40:35.692Z,988.29
2023-05-04T02:41:35.631Z,988.30
2023-05-04T02:42:35.665Z,988.27
2023-05-04T02:43:35.612Z,988.31
2023-05-04T02:44:35.623Z,988.30
2023-05-04T02:45:35.627Z,988.32
2023-05-04T02:46:35.617Z,988.29
2023-05-04T02:47:35.652Z,988.36
2023-05-04T02:48:35.609Z,988.32
2023-05-04T02:49:35.538Z,988.34
2023-05-04T02:50:35.551Z,988.34
2023-05-04T02:51:35.554Z,988.37
2023-05-04T02:52:35.556Z,988.36
2023-05-04T02:53:35.491Z,988.30
2023-05-04T02:54:35.496Z,988.31
2023-05-04T02:55:35.481Z,988.31
2023-05-04T02:56:35.479Z,988.30
2023-05-04T02:57:35.464Z,988.26
2023-05-04T02:58:35.598Z,988.30
2023-05-04T02:59:35.409Z,988.29
2023-05-04T03:00:35.484Z,988.32
2023-05-04T03:01:35.458Z,988.32
2023-05-04T03:02:35.458Z,988.30
2023-05-04T03:03:35.426Z,988.28
2023-05-04T03:04:35.440Z,988.29
2023-05-04T03:05:35.365Z,988.27
2023-05-04T03:06:36.032Z,988.24
2023-05-04T03:07:35.360Z,988.24
2023-05-04T03:08:35.367Z,988.27
2023-05-04T03:09:35.418Z,988.23
2023-05-04T03:10:35.334Z,988.28
2023-05-04T03:11:35.295Z,988.27
2023-05-04T03:12:35.492Z,988.31
2023-05-04T03:13:35.286Z,988.29
2023-05-04T03:14:35.342Z,988.33
2023-05-04T03:15:35.252Z,988.34
2023-05-04T03:16:35.374Z,988.31
2023-05-04T03:17:35.356Z,988.32
2023-05-04T03:18:35.364Z,988.38
2023-05-04T03:19:35.294Z,988.38
2023-05-04T03:20:35.248Z,988.35
2023-05-04T03:21:35.238Z,988.40
2023-05-04T03:22:35.220Z,988.37
2023-05-04T03:23:35.223Z,988.34
2023-05-04T03:24:35.270Z,988.38
2023-05-04T03:25:35.162Z,988.33
2023-05-04T03:26:35.168Z,988.30
2023-05-04T03:27:35.162Z,988.32
2023-05-04T03:28:35.179Z,988.31
2023-05-04T03:29:35.126Z,988.30
2023-05-04T03:30:35.116Z,988.26
2023-05-04T03:31:35.169Z,988.31
2023-05-04T03:32:35.145Z,988.28
2023-05-04T03:33:35.100Z,988.26
2023-05-04T03:34:35.051Z,988.28
2023-05-04T03:35:35.024Z,988.25
2023-05-04T03:36:35.173Z,988.25
2023-05-04T03:37:35.006Z,988.26
2023-05-04T03:38:35.039Z,988.25
2023-05-04T03:39:35.093Z,988.27
2023-05-04T03:40:34.991Z,988.27
2023-05-04T03:41:34.974Z,988.27
2023-05-04T03:42:34.961Z,988.25
2023-05-04T03:43:34.934Z,988.22
2023-05-04T03:44:34.997Z,988.29
2023-05-04T03:45:34.928Z,988.26
2023-05-04T03:46:35.225Z,988.25
2023-05-04T03:47:35.021Z,988.26
2023-05-04T03:48:34.902Z,988.26
2023-05-04T03:49:34.872Z,988.25
2023-05-04T03:50:34.884Z,988.23
2023-05-04T03:51:35.358Z,988.24
2023-05-04T03:52:34.839Z,988.24
2023-05-04T03:53:34.827Z,988.21
2023-05-04T03:54:34.832Z,988.23
2023-05-04T03:55:34.868Z,988.26
2023-05-04T03:56:34.820Z,988.20
2023-05-04T03:57:34.758Z,988.22
2023-05-04T03:58:34.765Z,988.20
2023-05-04T03:59:34.789Z,988.18
2023-05-04T04:00:34.754Z,988.15
2023-05-04T04:01:34.734Z,988.20
2023-05-04T04:02:34.852Z,988.16
2023-05-04T04:03:34.790Z,988.16
2023-05-04T04:04:34.820Z,988.14
2023-05-04T04:05:34.675Z,988.17
2023-05-04T04:06:34.684Z,988.13
2023-05-04T04:07:34.668Z,988.09
2023-05-04T04:08:34.671Z,988.18
2023-05-04T04:09:34.642Z,988.12
2023-05-04T04:10:34.645Z,988.12
2023-05-04T04:11:34.641Z,988.14
2023-05-04T04:12:34.659Z,988.09
2023-05-04T04:13:34.607Z,988.07
2023-05-04T04:14:34.636Z,988.10
2023-05-04T04:15:35.092Z,988.08
2023-05-04T04:16:34.587Z,988.08
2023-05-04T04:17:34.566Z,988.06
2023-05-04T04:18:34.565Z,988.07
2023-05-04T04:19:34.542Z,988.08
2023-05-04T04:20:34.901Z,988.04
2023-05-04T04:21:34.509Z,988.02
2023-05-04T04:22:34.460Z,988.05
2023-05-04T04:23:34.484Z,988.06
2023-05-04T04:24:34.484Z,988.02
2023-05-04T04:25:34.462Z,988.02
2023-05-04T04:26:34.431Z,988.06
2023-05-04T04:27:34.469Z,988.04
2023-05-04T04:28:34.390Z,988.04
2023-05-04T04:29:34.496Z,988.02
2023-05-04T04:30:34.430Z,987.96
2023-05-04T04:31:34.505Z,987.97
2023-05-04T04:32:34.456Z,987.93
2023-05-04T04:33:34.414Z,987.92
2023-05-04T04:34:34.339Z,987.90
2023-05-04T04:35:34.375Z,987.93
2023-05-04T04:36:34.327Z,987.90
2023-05-04T04:37:34.339Z,987.93
2023-05-04T04:38:34.278Z,987.86
2023-05-04T04:39:34.344Z,987.88
2023-05-04T04:40:34.470Z,987.88
2023-05-04T04:41:34.462Z,987.88
2023-05-04T04:42:34.243Z,987.87
2023-05-04T04:43:34.266Z,987.94
2023-05-04T04:44:34.246Z,987.86
2023-05-04T04:45:34.265Z,987.89
2023-05-04T04:46:34.219Z,987.88
2023-05-04T04:47:34.264Z,987.85
2023-05-04T04:48:34.215Z,987.89
2023-05-04T04:49:34.324Z,987.84
2023-05-04T04:50:34.201Z,987.85
2023-05-04T04:51:34.174Z,987.88
2023-05-04T04:52:34.154Z,987.86
2023-05-04T04:53:34.173Z,987.82
2023-05-04T04:54:34.110Z,987.84
2023-05-04T04:55:34.117Z,987.86
2023-05-04T04:56:34.096Z,987.84
2023-05-04T04:57:34.131Z,987.86
2023-05-04T04:58:34.072Z,987.86
2023-05-04T04:59:34.105Z,987.87
2023-05-04T05:00:34.058Z,987.88
2023-05-04T05:01:34.222Z,987.89
2023-05-04T05:02:34.040Z,987.87
2023-05-04T05:03:34.026Z,987.90
2023-05-04T05:04:34.069Z,987.92
2023-05-04T05:05:34.062Z,987.90
2023-05-04T05:06:33.975Z,987.97
2023-05-04T05:07:34.301Z,987.99
2023-05-04T05:08:33.964Z,988.02
2023-05-04T05:09:33.963Z,987.99
2023-05-04T05:10:33.984Z,988.01
2023-05-04T05:11:33.967Z,988.01
2023-05-04T05:12:33.970Z,988.01
2023-05-04T05:13:33.990Z,987.98
2023-05-04T05:14:34.071Z,988.00
2023-05-04T05:15:33.953Z,988.01
2023-05-04T05:16:33.945Z,988.01
2023-05-04T05:17:33.904Z,987.99
2023-05-04T05:18:33.868Z,988.00
2023-05-04T05:19:34.006Z,988.00
2023-05-04T05:20:34.051Z,987.95
2023-05-04T05:21:33.922Z,987.95
2023-05-04T05:22:34.026Z,987.98
2023-05-04T05:23:33.837Z,987.96
2023-05-04T05:24:33.795Z,988.00
2023-05-04T05:25:33.791Z,988.00
2023-05-04T05:26:33.758Z,988.00
2023-05-04T05:27:33.764Z,988.06
2023-05-04T05:28:33.753Z,988.03
2023-05-04T05:29:33.741Z,988.03
2023-05-04T05:30:33.760Z,988.03
2023-05-04T05:31:33.799Z,988.01
2023-05-04T05:32:33.721Z,988.07
2023-05-04T05:33:33.744Z,988.04
2023-05-04T05:34:33.863Z,988.05
2023-05-04T05:35:33.725Z,988.05
2023-05-04T05:36:33.661Z,988.04
2023-05-04T05:37:33.671Z,988.02
2023-05-04T05:38:33.635Z,988.01
2023-05-04T05:39:33.754Z,988.02
2023-05-04T05:40:33.622Z,988.03
2023-05-04T05:41:33.859Z,988.08
2023-05-04T05:42:33.574Z,988.07
2023-05-04T05:43:33.747Z,988.04
2023-05-04T05:44:33.775Z,988.03
2023-05-04T05:45:33.585Z,988.06
2023-05-04T05:46:33.552Z,988.13
2023-05-04T05:47:34.226Z,988.11
2023-05-04T05:48:34.006Z,988.10
2023-05-04T05:49:33.883Z,988.11
2023-05-04T05:50:33.518Z,988.13
2023-05-04T05:51:34.370Z,988.09
2023-05-04T05:52:33.501Z,988.07
2023-05-04T05:53:33.613Z,988.10
2023-05-04T05:54:33.432Z,988.10
2023-05-04T05:55:33.445Z,988.09
2023-05-04T05:56:33.410Z,988.06
2023-05-04T05:57:33.460Z,988.02
2023-05-04T05:58:33.409Z,988.05
2023-05-04T05:59:33.413Z,988.07
2023-05-04T06:00:33.384Z,988.09
2023-05-04T06:01:33.403Z,988.07
2023-05-04T06:02:33.409Z,988.03
2023-05-04T06:03:33.609Z,988.07
2023-05-04T06:04:33.504Z,988.06
2023-05-04T06:05:33.327Z,988.07
2023-05-04T06:06:33.388Z,988.08
2023-05-04T06:07:33.440Z,988.04
2023-05-04T06:08:33.330Z,988.03
2023-05-04T06:09:33.387Z,988.03
2023-05-04T06:10:33.256Z,988.08
2023-05-04T06:11:33.282Z,988.05
2023-05-04T06:12:33.332Z,988.02
2023-05-04T06:13:33.242Z,988.06
2023-05-04T06:14:33.392Z,988.01
2023-05-04T06:15:33.274Z,987.98
2023-05-04T06:16:33.255Z,987.99
2023-05-04T06:17:33.259Z,987.98
2023-05-04T06:18:33.202Z,987.93
2023-05-04T06:19:33.186Z,987.90
2023-05-04T06:20:33.125Z,987.95
2023-05-04T06:21:33.215Z,987.88
2023-05-04T06:22:33.135Z,987.87
2023-05-04T06:23:33.120Z,987.90
2023-05-04T06:24:33.119Z,987.93
2023-05-04T06:25:33.444Z,987.90
2023-05-04T06:26:33.362Z,987.86
2023-05-04T06:27:33.397Z,987.85
2023-05-04T06:28:33.079Z,987.80
2023-05-04T06:29:33.070Z,987.83
2023-05-04T06:30:33.060Z,987.85
2023-05-04T06:31:33.218Z,987.80
2023-05-04T06:32:33.058Z,987.82
2023-05-04T06:33:33.016Z,987.76
2023-05-04T06:34:32.983Z,987.80
2023-05-04T06:35:32.993Z,987.77
2023-05-04T06:36:32.991Z,987.77
2023-05-04T06:37:32.951Z,987.80
2023-05-04T06:38:34.673Z,987.79
2023-05-04T06:39:32.976Z,987.75
2023-05-04T06:40:32.942Z,987.74
2023-05-04T06:41:32.916Z,987.72
2023-05-04T06:42:32.913Z,987.72
2023-05-04T06:43:33.077Z,987.72
2023-05-04T06:44:32.864Z,987.69
2023-05-04T06:45:32.900Z,987.71
2023-05-04T06:46:32.955Z,987.73
2023-05-04T06:47:32.877Z,987.73
2023-05-04T06:48:32.995Z,987.67
2023-05-04T06:49:32.996Z,987.63
2023-05-04T06:50:32.928Z,987.64
2023-05-04T06:51:32.829Z,987.62
2023-05-04T06:52:32.791Z,987.61
2023-05-04T06:53:32.791Z,987.57
2023-05-04T06:54:32.796Z,987.59
2023-05-04T06:55:32.746Z,987.61
2023-05-04T06:56:32.749Z,987.63
2023-05-04T06:57:32.765Z,987.65
2023-05-04T06:58:32.724Z,987.62
2023-05-04T06:59:32.775Z,987.59
2023-05-04T07:00:32.680Z,987.61
2023-05-04T07:01:32.732Z,987.59
2023-05-04T07:02:32.729Z,987.52
2023-05-04T07:03:32.776Z,987.51
2023-05-04T07:04:32.819Z,987.52
2023-05-04T07:05:32.644Z,987.53
2023-05-04T07:06:32.659Z,987.52
2023-05-04T07:07:32.629Z,987.57
2023-05-04T07:08:33.139Z,987.57
2023-05-04T07:09:32.843Z,987.62
2023-05-04T07:10:32.585Z,987.61
2023-05-04T07:11:32.594Z,987.60
2023-05-04T07:12:32.580Z,987.59
2023-05-04T07:13:32.601Z,987.58
2023-05-04T07:14:32.523Z,987.57
2023-05-04T07:15:32.529Z,987.54
2023-05-04T07:16:32.528Z,987.58
2023-05-04T07:17:32.583Z,987.58
2023-05-04T07:18:32.479Z,987.57
2023-05-04T07:19:32.492Z,987.54
2023-05-04T07:20:32.482Z,987.53
2023-05-04T07:21:32.519Z,987.57
2023-05-04T07:22:32.437Z,987.54
2023-05-04T07:23:32.439Z,987.53
2023-05-04T07:24:32.528Z,987.49
2023-05-04T07:25:32.431Z,987.44
2023-05-04T07:26:32.439Z,987.43
2023-05-04T07:27:32.423Z,987.42
2023-05-04T07:28:32.378Z,987.30
2023-05-04T07:29:32.388Z,987.33
2023-05-04T07:30:32.378Z,987.30
2023-05-04T07:31:32.421Z,987.27
2023-05-04T07:32:32.517Z,987.30
2023-05-04T07:33:32.315Z,987.29
2023-05-04T07:34:44.514Z,987.26
2023-05-04T07:35:33.307Z,987.26
2023-05-04T07:36:32.261Z,987.27
2023-05-04T07:37:32.295Z,987.25
2023-05-04T07:38:32.266Z,987.23
2023-05-04T07:39:32.245Z,987.25
2023-05-04T07:40:32.637Z,987.25
2023-05-04T07:41:32.233Z,987.25
2023-05-04T07:42:32.216Z,987.25
2023-05-04T07:43:32.232Z,987.22
2023-05-04T07:44:32.219Z,987.23
2023-05-04T07:45:32.187Z,987.21
2023-05-04T07:46:32.340Z,987.19
2023-05-04T07:47:32.239Z,987.19
2023-05-04T07:48:32.107Z,987.24
2023-05-04T07:49:32.159Z,987.20
2023-05-04T07:50:32.201Z,987.17
2023-05-04T07:51:32.521Z,987.19
2023-05-04T07:52:32.080Z,987.16
2023-05-04T07:53:32.105Z,987.14
2023-05-04T07:54:32.053Z,987.16
2023-05-04T07:55:32.067Z,987.18
2023-05-04T07:56:32.110Z,987.19
2023-05-04T07:57:32.041Z,987.17
2023-05-04T07:58:32.016Z,987.20
2023-05-04T07:59:32.017Z,987.19
2023-05-04T08:00:31.997Z,987.19
2023-05-04T08:01:32.019Z,987.22
2023-05-04T08:02:32.051Z,987.17
2023-05-04T08:03:32.038Z,987.15
2023-05-04T08:04:31.953Z,987.18
2023-05-04T08:05:31.964Z,987.17
2023-05-04T08:06:31.928Z,987.16
2023-05-04T08:07:31.954Z,987.20
2023-05-04T08:08:31.903Z,987.15
2023-05-04T08:09:31.927Z,987.13
2023-05-04T08:10:31.986Z,987.16
2023-05-04T08:11:31.901Z,987.12
2023-05-04T08:12:31.876Z,987.12
2023-05-04T08:13:31.880Z,987.10
2023-05-04T08:14:31.920Z,987.04
2023-05-04T08:15:31.853Z,987.09
2023-05-04T08:16:31.804Z,987.04
2023-05-04T08:17:31.873Z,987.03
2023-05-04T08:18:31.824Z,987.07
2023-05-04T08:19:31.837Z,987.03
2023-05-04T08:20:31.760Z,986.99
2023-05-04T08:21:31.842Z,987.01
2023-05-04T08:22:31.744Z,987.03
2023-05-04T08:23:31.744Z,987.05
2023-05-04T08:24:31.931Z,986.97
2023-05-04T08:25:31.734Z,986.99
2023-05-04T08:26:31.750Z,987.01
2023-05-04T08:27:31.704Z,987.00
2023-05-04T08:28:31.691Z,986.94
2023-05-04T08:29:31.681Z,986.94
2023-05-04T08:30:32.177Z,987.00
2023-05-04T08:31:31.688Z,986.95
2023-05-04T08:32:33.261Z,986.92
2023-05-04T08:33:31.651Z,986.94
2023-05-04T08:34:31.592Z,986.96
2023-05-04T08:35:31.643Z,986.86
2023-05-04T08:36:31.600Z,986.93
2023-05-04T08:37:31.582Z,986.90
2023-05-04T08:38:31.627Z,986.94
2023-05-04T08:39:31.558Z,986.89
2023-05-04T08:40:31.578Z,986.92
2023-05-04T08:41:31.551Z,986.89
2023-05-04T08:42:31.596Z,986.88
2023-05-04T08:43:31.511Z,986.89
2023-05-04T08:44:31.520Z,986.88
2023-05-04T08:45:31.582Z,986.83
2023-05-04T08:46:31.496Z,986.80
2023-05-04T08:47:31.507Z,986.85
2023-05-04T08:48:31.543Z,986.79
2023-05-04T08:49:31.447Z,986.79
2023-05-04T08:50:31.473Z,986.77
2023-05-04T08:51:31.482Z,986.78
2023-05-04T08:52:31.445Z,986.72
2023-05-04T08:53:31.443Z,986.73
2023-05-04T08:54:31.400Z,986.84
2023-05-04T08:55:31.420Z,986.77
2023-05-04T08:56:31.404Z,986.77
2023-05-04T08:57:31.382Z,986.64
2023-05-04T08:58:31.348Z,986.74
2023-05-04T08:59:31.315Z,986.74
2023-05-04T09:00:31.398Z,986.70
2023-05-04T09:01:31.370Z,986.70
2023-05-04T09:02:31.392Z,986.66
2023-05-04T09:03:31.433Z,986.72
2023-05-04T09:04:31.288Z,986.69
2023-05-04T09:05:31.253Z,986.62
2023-05-04T09:06:31.340Z,986.66
2023-05-04T09:07:31.254Z,986.70
2023-05-04T09:08:31.241Z,986.67
2023-05-04T09:09:31.208Z,986.61
2023-05-04T09:10:31.248Z,986.68
2023-05-04T09:11:31.188Z,986.63
2023-05-04T09:12:31.217Z,986.70
2023-05-04T09:13:31.223Z,986.66
2023-05-04T09:14:31.169Z,986.64
2023-05-04T09:15:31.144Z,986.66
2023-05-04T09:16:31.194Z,986.57
2023-05-04T09:17:31.158Z,986.62
2023-05-04T09:18:31.171Z,986.57
2023-05-04T09:19:31.104Z,986.51
2023-05-04T09:20:31.349Z,986.59
2023-05-04T09:21:31.107Z,986.60
2023-05-04T09:22:31.128Z,986.61
2023-05-04T09:23:31.056Z,986.57
2023-05-04T09:24:31.095Z,986.58
2023-05-04T09:25:31.035Z,986.60
2023-05-04T09:26:31.040Z,986.66
2023-05-04T09:27:31.453Z,986.63
2023-05-04T09:28:31.003Z,986.64
2023-05-04T09:29:31.027Z,986.59
2023-05-04T09:30:31.033Z,986.55
2023-05-04T09:31:31.026Z,986.54
2023-05-04T09:32:31.070Z,986.59
2023-05-04T09:33:31.203Z,986.51
2023-05-04T09:34:30.945Z,986.53
2023-05-04T09:35:33.485Z,986.52
2023-05-04T09:36:30.971Z,986.48
2023-05-04T09:37:30.883Z,986.56
2023-05-04T09:38:30.885Z,986.60
2023-05-04T09:39:30.909Z,986.61
2023-05-04T09:40:30.893Z,986.54
2023-05-04T09:41:30.897Z,986.53
2023-05-04T09:42:30.871Z,986.45
2023-05-04T09:43:30.826Z,986.47
2023-05-04T09:44:30.872Z,986.43
2023-05-04T09:45:30.836Z,986.42
2023-05-04T09:46:30.855Z,986.39
2023-05-04T09:47:30.837Z,986.43
2023-05-04T09:48:30.848Z,986.40
2023-05-04T09:49:30.752Z,986.39
2023-05-04T09:50:30.810Z,986.35
2023-05-04T09:51:30.736Z,986.45
2023-05-04T09:52:31.100Z,986.35
2023-05-04T09:53:30.708Z,986.33
2023-05-04T09:54:30.721Z,986.33
2023-05-04T09:55:30.744Z,986.26
2023-05-04T09:56:30.684Z,986.35
2023-05-04T09:57:30.755Z,986.29
2023-05-04T09:58:30.680Z,986.39
2023-05-04T09:59:30.678Z,986.42
2023-05-04T10:00:30.646Z,986.33
2023-05-04T10:01:30.700Z,986.37
2023-05-04T10:02:30.684Z,986.38
2023-05-04T10:03:30.600Z,986.30
2023-05-04T10:04:30.672Z,986.30
2023-05-04T10:05:30.609Z,986.32
2023-05-04T10:06:30.599Z,986.30
2023-05-04T10:07:30.545Z,986.31
2023-05-04T10:08:30.597Z,986.28
2023-05-04T10:09:30.540Z,986.27
2023-05-04T10:10:31.052Z,986.20
2023-05-04T10:11:30.506Z,986.24
2023-05-04T10:12:31.750Z,986.24
2023-05-04T10:13:30.516Z,986.24
2023-05-04T10:14:30.542Z,986.29
2023-05-04T10:15:30.486Z,986.21
2023-05-04T10:16:30.615Z,986.21
2023-05-04T10:17:30.554Z,986.12
2023-05-04T10:18:30.437Z,986.05
2023-05-04T10:19:30.406Z,986.01
2023-05-04T10:20:30.483Z,986.11
2023-05-04T10:21:30.382Z,986.09
2023-05-04T10:22:30.417Z,986.02
2023-05-04T10:23:30.367Z,986.01
2023-05-04T10:24:30.432Z,985.97
2023-05-04T10:25:30.368Z,985.99
2023-05-04T10:26:30.363Z,985.94
2023-05-04T10:27:30.315Z,985.87
2023-05-04T10:28:30.360Z,985.84
2023-05-04T10:29:30.325Z,985.91
2023-05-04T10:30:30.324Z,985.82
2023-05-04T10:31:30.341Z,985.78
2023-05-04T10:32:30.282Z,985.81
2023-05-04T10:33:30.269Z,985.78
2023-05-04T10:34:30.467Z,985.84
2023-05-04T10:35:30.251Z,985.82
2023-05-04T10:36:30.268Z,985.77
2023-05-04T10:37:30.198Z,985.70
2023-05-04T10:38:30.226Z,985.73
2023-05-04T10:39:30.226Z,985.76
2023-05-04T10:40:30.226Z,985.79
2023-05-04T10:41:30.165Z,985.75
2023-05-04T10:42:30.210Z,985.77
2023-05-04T10:43:30.174Z,985.76
2023-05-04T10:44:30.242Z,985.70
2023-05-04T10:45:30.234Z,985.71
2023-05-04T10:46:30.129Z,985.67
2023-05-04T10:47:30.125Z,985.64
2023-05-04T10:48:30.125Z,985.62
2023-05-04T10:49:30.063Z,985.61
2023-05-04T10:50:30.109Z,985.57
2023-05-04T10:51:38.887Z,985.60
2023-05-04T10:52:31.069Z,985.56
2023-05-04T10:53:30.018Z,985.62
2023-05-04T10:54:30.220Z,985.55
2023-05-04T10:55:30.076Z,985.54
2023-05-04T10:56:30.035Z,985.46
2023-05-04T10:57:30.011Z,985.45
2023-05-04T10:58:30.008Z,985.41
2023-05-04T10:59:29.991Z,985.45
2023-05-04T11:00:30.015Z,985.40
2023-05-04T11:01:29.983Z,985.37
2023-05-04T11:02:32.405Z,985.29
2023-05-04T11:03:30.112Z,985.39
2023-05-04T11:04:30.006Z,985.30
2023-05-04T11:05:29.892Z,985.36
2023-05-04T11:06:29.929Z,985.36
2023-05-04T11:07:29.865Z,985.35
2023-05-04T11:08:29.892Z,985.33
2023-05-04T11:09:29.867Z,985.38
2023-05-04T11:10:29.849Z,985.40
2023-05-04T11:11:29.939Z,985.30
2023-05-04T11:12:29.897Z,985.24
2023-05-04T11:13:29.786Z,985.27
2023-05-04T11:14:29.903Z,985.29
2023-05-04T11:15:29.940Z,985.28
2023-05-04T11:16:29.844Z,985.20
2023-05-04T11:17:29.859Z,985.15
2023-05-04T11:18:29.770Z,985.15
2023-05-04T11:19:29.757Z,985.11
2023-05-04T11:20:29.759Z,985.08
2023-05-04T11:21:29.732Z,985.06
2023-05-04T11:22:29.759Z,985.08
2023-05-04T11:23:29.696Z,985.10
2023-05-04T11:24:29.710Z,985.14
2023-05-04T11:25:29.702Z,985.13
2023-05-04T11:26:29.709Z,985.08
2023-05-04T11:27:29.689Z,985.08
2023-05-04T11:28:29.651Z,985.05
2023-05-04T11:29:29.612Z,985.06
2023-05-04T11:30:29.666Z,985.15
2023-05-04T11:31:29.630Z,985.09
2023-05-04T11:32:29.813Z,984.96
2023-05-04T11:33:29.691Z,985.00
2023-05-04T11:34:29.575Z,985.00
2023-05-04T11:35:29.996Z,984.99
2023-05-04T11:36:30.019Z,984.99
2023-05-04T11:37:29.584Z,984.98
2023-05-04T11:38:29.550Z,984.89
2023-05-04T11:39:29.504Z,984.90
2023-05-04T11:40:29.538Z,984.89
2023-05-04T11:41:29.486Z,984.87
2023-05-04T11:42:29.480Z,984.95
2023-05-04T11:43:29.488Z,984.99
2023-05-04T11:44:29.540Z,984.98
2023-05-04T11:45:29.454Z,984.97
2023-05-04T11:46:29.815Z,984.93
2023-05-04T11:47:29.410Z,984.91
2023-05-04T11:48:29.422Z,984.85
2023-05-04T11:49:29.441Z,984.81
2023-05-04T11:50:29.506Z,984.90
2023-05-04T11:51:29.387Z,984.88
2023-05-04T11:52:29.602Z,984.83
2023-05-04T11:53:29.512Z,984.72
2023-05-04T11:54:29.347Z,984.72
2023-05-04T11:55:29.531Z,984.81
2023-05-04T11:56:29.787Z,984.75
2023-05-04T11:57:29.288Z,984.74
2023-05-04T11:58:29.330Z,984.73
2023-05-04T11:59:29.460Z,984.63
2023-05-04T12:00:29.330Z,984.68
2023-05-04T12:01:30.431Z,984.75
2023-05-04T12:02:29.371Z,984.70
2023-05-04T12:03:39.649Z,984.65
2023-05-04T12:04:30.342Z,984.70
2023-05-04T12:05:29.311Z,984.72
2023-05-04T12:06:29.708Z,984.66
2023-05-04T12:07:29.281Z,984.62
2023-05-04T12:08:29.284Z,984.64
2023-05-04T12:09:29.169Z,984.59
2023-05-04T12:10:29.177Z,984.62
2023-05-04T12:11:29.218Z,984.58
2023-05-04T12:12:30.187Z,984.55
2023-05-04T12:13:29.137Z,984.54
2023-05-04T12:14:29.256Z,984.55
2023-05-04T12:15:29.407Z,984.55
2023-05-04T12:16:29.167Z,984.44
2023-05-04T12:17:29.081Z,984.48
2023-05-04T12:18:29.076Z,984.45
2023-05-04T12:19:29.118Z,984.46
2023-05-04T12:20:29.078Z,984.48
2023-05-04T12:21:29.022Z,984.49
2023-05-04T12:22:29.037Z,984.48
2023-05-04T12:23:29.035Z,984.52
2023-05-04T12:24:29.009Z,984.45
2023-05-04T12:25:28.995Z,984.47
2023-05-04T12:26:29.448Z,984.40
2023-05-04T12:27:28.969Z,984.47
2023-05-04T12:28:29.019Z,984.39